Time;durP1;ratioP1;P1;durP2;ratioP2;P2;SDS_P1;SDS_P2;PMS_P1;PMS_P2;Temp;Humidity;BMP_temperature;BMP_pressure;BME280_temperature;BME280_humidity;BME280_pressure;Samples;Min_cycle;Max_cycle;Signal;HPM_P1;HPM_P2
2021/03/02 00:01:49;;;;;;;30.53;19.47;;;1.20;99.90;;;;;;6411192;22;20409;-94
2021/03/02 00:04:17;;;;;;;23.93;17.80;;;1.20;99.90;;;;;;6410643;22;20392;-94
2021/03/02 00:06:44;;;;;;;24.07;18.07;;;1.30;99.90;;;;;;6409590;22;20421;-93
2021/03/02 00:09:12;;;;;;;23.67;17.37;;;1.20;99.90;;;;;;6410550;22;20417;-93
2021/03/02 00:11:39;;;;;;;24.90;18.43;;;1.20;99.90;;;;;;6410442;22;20446;-91
2021/03/02 00:14:07;;;;;;;25.67;19.03;;;1.10;99.90;;;;;;6409973;22;20453;-91
2021/03/02 00:16:38;;;;;;;25.20;19.00;;;1.10;99.90;;;;;;6410296;22;20400;-93
2021/03/02 00:19:10;;;;;;;26.90;18.10;;;1.20;99.90;;;;;;6410099;22;20432;-91
2021/03/02 00:21:42;;;;;;;22.43;18.30;;;1.10;99.90;;;;;;6409794;22;20470;-91
2021/03/02 00:24:12;;;;;;;26.73;17.87;;;1.10;99.90;;;;;;6409497;22;20813;-91
2021/03/02 00:26:44;;;;;;;23.87;18.60;;;1.10;99.90;;;;;;6409287;22;20429;-93
2021/03/02 00:29:13;;;;;;;24.20;17.90;;;1.10;99.90;;;;;;6410301;22;21546;-93
2021/03/02 00:31:43;;;;;;;26.60;18.73;;;1.10;99.90;;;;;;6409467;22;20488;-93
2021/03/02 00:34:14;;;;;;;25.70;19.50;;;1.10;99.90;;;;;;6408088;22;20389;-93
2021/03/02 00:36:41;;;;;;;25.90;19.47;;;1.00;99.90;;;;;;6408161;22;20394;-93
2021/03/02 00:39:11;;;;;;;23.80;16.20;;;1.00;99.90;;;;;;6409510;22;20400;-93
2021/03/02 00:41:38;;;;;;;31.23;18.77;;;0.90;99.90;;;;;;6409355;22;20418;-93
2021/03/02 00:44:06;;;;;;;23.93;18.00;;;0.90;99.90;;;;;;6409681;22;20396;-93
2021/03/02 00:46:37;;;;;;;26.90;18.77;;;0.90;99.90;;;;;;6409177;22;20421;-93
2021/03/02 00:49:04;;;;;;;26.67;18.57;;;0.90;99.90;;;;;;6409962;22;20781;-93
2021/03/02 00:51:32;;;;;;;25.37;18.70;;;0.80;99.90;;;;;;6409504;22;20420;-93
2021/03/02 00:53:59;;;;;;;24.00;18.10;;;0.80;99.90;;;;;;6408712;22;20413;-93
2021/03/02 00:56:27;;;;;;;25.63;18.40;;;0.90;99.90;;;;;;6408366;22;20704;-93
2021/03/02 00:58:54;;;;;;;23.83;18.60;;;0.80;99.90;;;;;;6409387;22;20781;-93
2021/03/02 01:01:21;;;;;;;23.40;18.93;;;0.80;99.90;;;;;;6409106;22;20421;-94
2021/03/02 01:03:49;;;;;;;24.03;17.23;;;0.80;99.90;;;;;;6408701;22;20383;-93
2021/03/02 01:06:16;;;;;;;25.23;17.67;;;0.80;99.90;;;;;;6407787;22;20449;-93
2021/03/02 01:08:44;;;;;;;23.63;16.97;;;0.80;99.90;;;;;;6409846;22;20418;-93
2021/03/02 01:11:11;;;;;;;24.90;17.50;;;0.80;99.90;;;;;;6409297;22;20417;-93
2021/03/02 01:13:38;;;;;;;25.93;17.33;;;0.80;99.90;;;;;;6408668;22;20422;-93
2021/03/02 01:16:08;;;;;;;25.47;18.27;;;0.90;99.90;;;;;;6408233;22;20427;-93
2021/03/02 01:18:35;;;;;;;24.07;17.53;;;0.90;99.90;;;;;;6409074;22;20417;-93
2021/03/02 01:21:06;;;;;;;24.43;16.90;;;0.90;99.90;;;;;;6409591;22;20428;-93
2021/03/02 01:23:33;;;;;;;22.30;17.60;;;0.80;99.90;;;;;;6408382;22;20753;-93
2021/03/02 01:26:03;;;;;;;25.93;17.13;;;0.80;99.90;;;;;;6409089;22;20422;-93
2021/03/02 01:28:30;;;;;;;23.50;17.83;;;0.80;99.90;;;;;;6409352;22;20407;-93
2021/03/02 01:30:57;;;;;;;23.20;16.27;;;0.80;99.90;;;;;;6409202;22;20388;-93
2021/03/02 01:33:24;;;;;;;23.57;17.27;;;0.80;99.90;;;;;;6408529;22;20512;-93
2021/03/02 01:35:51;;;;;;;25.77;17.20;;;0.80;99.90;;;;;;6408125;22;20397;-93
2021/03/02 01:38:19;;;;;;;22.53;16.63;;;0.90;99.90;;;;;;6408449;22;20422;-93
2021/03/02 01:40:48;;;;;;;22.13;16.80;;;0.90;99.90;;;;;;6408445;22;20822;-93
2021/03/02 01:43:15;;;;;;;25.90;16.77;;;0.90;99.90;;;;;;6407934;22;20396;-93
2021/03/02 01:45:42;;;;;;;23.70;16.00;;;0.80;99.90;;;;;;6408194;22;20429;-93
2021/03/02 01:48:12;;;;;;;18.10;15.03;;;0.80;99.90;;;;;;6408096;22;20426;-93
2021/03/02 01:50:39;;;;;;;22.63;15.50;;;0.80;99.90;;;;;;6408712;22;20400;-93
2021/03/02 01:53:06;;;;;;;20.73;15.23;;;0.70;99.90;;;;;;6407909;22;20478;-94
2021/03/02 01:55:34;;;;;;;19.00;14.90;;;0.70;99.90;;;;;;6409066;22;20447;-93
2021/03/02 01:58:01;;;;;;;21.17;16.10;;;0.80;99.90;;;;;;6408003;22;20419;-93
2021/03/02 02:00:31;;;;;;;18.87;14.50;;;0.70;99.90;;;;;;6408069;22;20394;-93
2021/03/02 02:03:23;;;;;;;18.63;14.33;;;0.70;99.90;;;;;;6407902;22;20418;-93
2021/03/02 02:06:02;;;;;;;20.43;14.80;;;0.70;99.90;;;;;;6408555;22;20407;-93
2021/03/02 02:08:38;;;;;;;19.00;14.60;;;0.70;99.90;;;;;;6407616;22;20925;-93
2021/03/02 02:11:13;;;;;;;19.23;14.33;;;0.70;99.90;;;;;;6407787;22;20376;-93
2021/03/02 02:13:48;;;;;;;19.73;14.47;;;0.70;99.90;;;;;;6407561;22;20808;-93
2021/03/02 02:16:16;;;;;;;17.83;14.17;;;0.70;99.90;;;;;;6408020;22;20690;-93
2021/03/02 02:18:44;;;;;;;20.67;14.40;;;0.70;99.90;;;;;;6407899;22;20427;-93
2021/03/02 02:21:23;;;;;;;18.30;14.23;;;0.70;99.90;;;;;;6408157;22;21161;-93
2021/03/02 02:24:05;;;;;;;24.03;13.97;;;0.70;99.90;;;;;;6408235;22;20396;-93
2021/03/02 02:26:58;;;;;;;19.00;14.13;;;0.70;99.90;;;;;;6408413;22;20433;-94
2021/03/02 02:29:31;;;;;;;18.23;13.50;;;0.60;99.90;;;;;;6408356;22;20424;-94
2021/03/02 02:32:01;;;;;;;14.03;11.80;;;0.60;99.90;;;;;;6407391;22;20758;-93
2021/03/02 02:34:31;;;;;;;18.90;13.20;;;0.50;99.90;;;;;;6408001;22;20778;-93
2021/03/02 02:37:03;;;;;;;17.30;11.80;;;0.50;99.90;;;;;;6410044;22;20396;-93
2021/03/02 02:39:34;;;;;;;18.50;13.00;;;0.50;99.90;;;;;;6410295;22;20784;-93
2021/03/02 02:42:03;;;;;;;17.17;12.77;;;0.50;99.90;;;;;;6410178;22;20421;-93
2021/03/02 02:44:31;;;;;;;18.70;11.87;;;0.50;99.90;;;;;;6410202;22;20421;-93
2021/03/02 02:46:59;;;;;;;16.53;12.50;;;0.50;99.90;;;;;;6409342;22;20428;-93
2021/03/02 02:49:31;;;;;;;18.60;13.00;;;0.60;99.90;;;;;;6410483;22;20402;-93
2021/03/02 02:51:58;;;;;;;16.60;12.67;;;0.60;99.90;;;;;;6410639;22;20416;-93
2021/03/02 02:54:26;;;;;;;18.60;12.67;;;0.60;99.90;;;;;;6410267;22;20452;-93
2021/03/02 02:56:56;;;;;;;15.20;11.50;;;0.60;99.90;;;;;;6410077;22;20462;-93
2021/03/02 02:59:29;;;;;;;14.13;11.77;;;0.60;99.90;;;;;;6409749;22;20519;-93
2021/03/02 03:16:00;;;;;;;18.80;12.33;;;0.30;99.90;;;;;;6409404;22;20418;-93
2021/03/02 03:18:31;;;;;;;21.07;13.30;;;0.40;99.90;;;;;;6408362;22;20420;-93
2021/03/02 03:20:59;;;;;;;19.53;14.20;;;0.40;99.90;;;;;;6409739;22;20448;-93
2021/03/02 03:23:28;;;;;;;21.57;14.50;;;0.40;99.90;;;;;;6409854;22;20375;-93
2021/03/02 03:25:55;;;;;;;23.10;13.30;;;0.40;99.90;;;;;;6409764;22;20425;-93
2021/03/02 03:28:23;;;;;;;16.47;12.50;;;0.40;99.90;;;;;;6409226;22;20424;-93
2021/03/02 03:30:51;;;;;;;17.60;13.27;;;0.50;99.90;;;;;;6409233;22;20372;-93
2021/03/02 03:33:21;;;;;;;21.60;14.03;;;0.60;99.90;;;;;;6409736;22;20884;-93
2021/03/02 03:35:51;;;;;;;18.17;12.50;;;0.50;99.90;;;;;;6410287;22;20425;-93
2021/03/02 03:38:18;;;;;;;19.90;12.60;;;0.50;99.90;;;;;;6410283;22;20425;-93
2021/03/02 03:40:45;;;;;;;13.33;10.70;;;0.50;99.90;;;;;;6410020;22;20444;-93
2021/03/02 03:43:12;;;;;;;14.30;11.97;;;0.50;99.90;;;;;;6409198;22;20418;-93
2021/03/02 03:48:46;;;;;;;16.13;12.10;;;0.50;99.90;;;;;;6405242;22;20413;-93
2021/03/02 03:51:29;;;;;;;17.63;12.10;;;0.50;99.90;;;;;;6406467;22;20468;-92
2021/03/02 03:54:03;;;;;;;17.87;13.07;;;0.40;99.90;;;;;;6407427;22;20945;-93
2021/03/02 03:56:40;;;;;;;15.40;12.17;;;0.40;99.90;;;;;;6406697;22;20408;-92
2021/03/02 03:59:27;;;;;;;16.87;11.53;;;0.50;99.90;;;;;;6409528;22;20434;-93
2021/03/02 04:01:57;;;;;;;15.47;11.60;;;0.70;99.90;;;;;;6408896;22;20400;-93
2021/03/02 04:04:27;;;;;;;12.00;9.70;;;0.70;99.90;;;;;;6408833;22;20845;-93
2021/03/02 04:06:56;;;;;;;14.03;10.70;;;0.70;99.90;;;;;;6409214;22;20392;-93
2021/03/02 04:09:23;;;;;;;16.13;10.20;;;0.70;99.90;;;;;;6408695;22;20417;-93
2021/03/02 04:11:50;;;;;;;13.00;10.20;;;0.60;99.90;;;;;;6409849;22;20502;-93
2021/03/02 04:14:17;;;;;;;13.00;9.83;;;0.60;99.90;;;;;;6408856;22;20422;-93
2021/03/02 04:16:45;;;;;;;14.00;10.10;;;0.60;99.90;;;;;;6409120;22;20444;-93
2021/03/02 04:19:12;;;;;;;13.53;10.17;;;0.60;99.90;;;;;;6408702;22;20442;-93
2021/03/02 04:21:40;;;;;;;16.43;10.63;;;0.50;99.90;;;;;;6408994;22;20854;-93
2021/03/02 04:24:08;;;;;;;16.37;11.87;;;0.50;99.90;;;;;;6408525;22;20445;-93
2021/03/02 04:26:35;;;;;;;18.43;12.20;;;0.50;99.90;;;;;;6408680;22;20422;-93
2021/03/02 04:29:02;;;;;;;16.53;12.73;;;0.50;99.90;;;;;;6408409;22;20457;-93
2021/03/02 04:31:29;;;;;;;18.20;12.43;;;0.50;99.90;;;;;;6408477;22;20842;-93
2021/03/02 04:33:56;;;;;;;17.47;13.03;;;0.40;99.90;;;;;;6408433;22;20417;-93
2021/03/02 04:36:24;;;;;;;20.93;13.13;;;0.40;99.90;;;;;;6408713;22;20395;-93
2021/03/02 04:38:52;;;;;;;20.07;12.23;;;0.40;99.90;;;;;;6408835;22;20406;-93
2021/03/02 04:41:19;;;;;;;14.80;12.50;;;0.40;99.90;;;;;;6408731;22;20447;-93
2021/03/02 04:43:46;;;;;;;20.03;12.33;;;0.40;99.90;;;;;;6408297;22;20380;-93
2021/03/02 04:46:13;;;;;;;19.83;12.43;;;0.40;99.90;;;;;;6408772;22;20426;-93
2021/03/02 04:48:40;;;;;;;17.50;11.97;;;0.40;99.90;;;;;;6408994;22;20425;-93
2021/03/02 04:51:08;;;;;;;17.57;12.47;;;0.40;99.90;;;;;;6409222;22;20406;-93
2021/03/02 04:53:35;;;;;;;16.00;11.73;;;0.40;99.90;;;;;;6409454;22;20467;-93
2021/03/02 04:56:04;;;;;;;18.67;13.33;;;0.30;99.90;;;;;;6409336;22;20442;-93
2021/03/02 04:58:31;;;;;;;16.57;10.60;;;0.30;99.90;;;;;;6408660;22;20451;-93
2021/03/02 05:00:58;;;;;;;11.77;10.13;;;0.40;99.90;;;;;;6409269;22;20422;-93
2021/03/02 05:03:25;;;;;;;13.93;10.50;;;0.40;99.90;;;;;;6408694;22;20400;-93
2021/03/02 05:05:52;;;;;;;16.00;11.30;;;0.40;99.90;;;;;;6408583;22;20422;-93
2021/03/02 05:08:19;;;;;;;17.80;12.47;;;0.30;99.90;;;;;;6408765;22;20490;-93
2021/03/02 05:10:46;;;;;;;17.87;11.90;;;0.30;99.90;;;;;;6409783;22;20376;-94
2021/03/02 05:13:15;;;;;;;16.03;11.83;;;0.40;99.90;;;;;;6408917;22;20427;-93
2021/03/02 05:15:42;;;;;;;14.70;11.80;;;0.30;99.90;;;;;;6408765;22;20711;-93
2021/03/02 05:18:09;;;;;;;13.23;10.40;;;0.30;99.90;;;;;;6408552;22;20428;-93
2021/03/02 05:20:36;;;;;;;15.77;10.20;;;0.30;99.90;;;;;;6409362;22;20433;-94
2021/03/02 05:23:04;;;;;;;14.57;11.70;;;0.30;99.90;;;;;;6408745;22;20422;-93
2021/03/02 05:25:31;;;;;;;16.50;11.40;;;0.30;99.90;;;;;;6408691;22;20404;-93
2021/03/02 05:27:58;;;;;;;15.10;11.70;;;0.30;99.90;;;;;;6408507;22;20420;-93
2021/03/02 05:30:28;;;;;;;14.10;11.93;;;0.40;99.90;;;;;;6408543;22;20444;-93
2021/03/02 05:32:55;;;;;;;24.80;10.97;;;0.30;99.90;;;;;;6408663;22;20700;-93
2021/03/02 05:35:22;;;;;;;15.97;11.90;;;0.30;99.90;;;;;;6409065;22;20403;-93
2021/03/02 05:37:49;;;;;;;17.70;11.83;;;0.30;99.90;;;;;;6408746;22;20453;-93
2021/03/02 05:40:17;;;;;;;15.97;10.67;;;0.40;99.90;;;;;;6409567;22;20429;-93
2021/03/02 05:42:46;;;;;;;14.50;10.80;;;0.40;99.90;;;;;;6408383;22;20410;-94
2021/03/02 05:45:14;;;;;;;14.13;11.30;;;0.40;99.90;;;;;;6408696;22;20402;-93
2021/03/02 05:47:43;;;;;;;14.73;10.20;;;0.50;99.90;;;;;;6409100;22;20403;-93
2021/03/02 05:50:14;;;;;;;13.03;9.47;;;0.50;99.90;;;;;;6408523;22;20425;-93
2021/03/02 05:52:41;;;;;;;13.63;9.57;;;0.50;99.90;;;;;;6408163;22;20441;-93
2021/03/02 05:55:13;;;;;;;15.60;9.33;;;0.50;99.90;;;;;;6409153;22;20422;-93
2021/03/02 05:57:41;;;;;;;10.87;8.07;;;0.50;99.90;;;;;;6407513;22;20454;-93
2021/03/02 06:00:09;;;;;;;12.17;8.70;;;0.50;99.90;;;;;;6407905;22;20434;-93
2021/03/02 06:02:37;;;;;;;12.67;8.17;;;0.40;99.90;;;;;;6409313;22;20400;-93
2021/03/02 06:05:07;;;;;;;10.40;7.40;;;0.50;99.90;;;;;;6409518;22;20441;-94
2021/03/02 06:07:35;;;;;;;13.23;8.30;;;0.60;99.90;;;;;;6408989;22;20421;-94
2021/03/02 06:10:02;;;;;;;11.80;7.53;;;0.60;99.90;;;;;;6408637;22;20421;-93
2021/03/02 06:12:30;;;;;;;10.67;7.53;;;0.50;99.90;;;;;;6409286;22;20441;-93
2021/03/02 06:15:06;;;;;;;11.67;7.73;;;0.60;99.90;;;;;;6409487;22;20754;-93
2021/03/02 06:17:34;;;;;;;12.20;8.00;;;0.70;99.90;;;;;;6408231;22;20469;-93
2021/03/02 06:20:02;;;;;;;11.97;8.73;;;0.60;99.90;;;;;;6409068;22;20425;-94
2021/03/02 06:22:41;;;;;;;11.23;8.13;;;0.60;99.90;;;;;;6409223;22;20417;-93
2021/03/02 06:25:26;;;;;;;7.80;6.97;;;0.60;99.90;;;;;;6412673;22;20397;-93
2021/03/02 06:27:53;;;;;;;8.90;6.90;;;0.70;99.90;;;;;;6406860;22;20376;-93
2021/03/02 06:30:22;;;;;;;11.90;7.80;;;0.80;99.90;;;;;;6406968;22;20401;-93
2021/03/02 06:32:52;;;;;;;10.40;7.80;;;0.80;99.90;;;;;;6406627;22;20805;-93
2021/03/02 06:35:32;;;;;;;12.30;9.60;;;0.90;99.90;;;;;;6406289;22;20413;-93
2021/03/02 06:38:03;;;;;;;12.53;9.23;;;1.00;99.90;;;;;;6406551;22;20491;-93
2021/03/02 06:40:41;;;;;;;16.23;8.10;;;1.00;99.90;;;;;;6406617;22;20406;-93
2021/03/02 06:43:08;;;;;;;12.70;7.60;;;1.00;99.90;;;;;;6405717;22;20409;-93
2021/03/02 06:45:35;;;;;;;7.93;7.10;;;1.10;99.90;;;;;;6406472;22;20432;-93
2021/03/02 06:48:06;;;;;;;9.30;6.13;;;1.10;99.90;;;;;;6406626;22;20424;-92
2021/03/02 07:06:19;;;;;;;8.93;6.77;;;1.50;99.90;;;;;;6425045;22;20472;-93
2021/03/02 07:08:51;;;;;;;12.53;8.20;;;1.60;99.90;;;;;;6436577;22;20766;-93
2021/03/02 07:11:29;;;;;;;7.90;7.10;;;1.70;99.90;;;;;;6438682;22;20677;-91
2021/03/02 07:14:07;;;;;;;10.60;7.83;;;1.80;99.90;;;;;;6438975;22;20508;-91
2021/03/02 07:22:48;;;;;;;18.83;9.60;;;2.00;99.90;;;;;;6438428;22;20404;-92
2021/03/02 07:31:22;;;;;;;15.50;9.93;;;2.60;99.90;;;;;;6440354;22;20423;-91
2021/03/02 07:33:51;;;;;;;19.23;10.73;;;2.90;99.90;;;;;;6439691;22;20435;-91
2021/03/02 07:36:24;;;;;;;18.63;10.73;;;3.20;99.90;;;;;;6412480;22;20431;-91
2021/03/02 07:42:03;;;;;;;14.97;11.53;;;3.80;99.90;;;;;;6440166;22;20409;-92
2021/03/02 09:14:44;;;;;;;11.90;8.90;;;14.40;1.00;;;;;;6407686;22;20444;-91
2021/03/02 09:17:10;;;;;;;10.50;9.40;;;14.80;1.00;;;;;;6405569;22;20396;-91
2021/03/02 09:20:35;;;;;;;12.30;10.27;;;15.20;1.00;;;;;;6406444;22;20503;-90
2021/03/02 09:23:54;;;;;;;13.30;10.57;;;15.60;1.00;;;;;;6385637;22;20795;-92
2021/03/02 09:30:08;;;;;;;15.30;12.80;;;15.80;99.90;;;;;;6316273;22;20919;-91
2021/03/02 09:32:56;;;;;;;11.13;9.87;;;15.70;99.90;;;;;;6406917;22;20453;-91
2021/03/02 14:42:35;;;;;;;12.80;8.23;;;18.70;99.90;;;;;;6429962;22;20506;-89
2021/03/02 16:13:45;;;;;;;11.20;8.67;;;16.30;99.90;;;;;;6425104;22;20429;-94
2021/03/02 19:15:51;;;;;;;14.40;10.10;;;8.70;99.90;;;;;;6407223;22;20424;-92
2021/03/02 19:18:31;;;;;;;14.37;11.23;;;8.60;99.90;;;;;;6409426;22;20401;-92
2021/03/02 19:51:18;;;;;;;12.57;9.90;;;8.20;99.90;;;;;;6409267;22;20563;-92
2021/03/02 19:54:19;;;;;;;16.67;10.20;;;8.30;1.00;;;;;;6410404;22;20450;-92
2021/03/02 19:57:23;;;;;;;16.93;10.80;;;8.30;99.90;;;;;;6313212;22;20450;-92
2021/03/02 20:00:01;;;;;;;15.20;11.10;;;8.30;99.90;;;;;;6312292;22;20414;-91
2021/03/02 20:02:28;;;;;;;13.60;10.17;;;8.10;99.90;;;;;;6387913;22;20532;-92
2021/03/02 20:04:56;;;;;;;15.87;12.10;;;8.00;99.90;;;;;;6408375;22;20425;-91
2021/03/02 20:07:27;;;;;;;22.00;12.80;;;7.90;1.00;;;;;;6409849;22;20422;-91
2021/03/02 20:10:00;;;;;;;20.23;13.10;;;7.90;1.00;;;;;;6409493;22;20404;-91
2021/03/02 20:12:29;;;;;;;16.63;10.90;;;7.90;1.00;;;;;;6408179;22;20516;-91
2021/03/02 20:15:01;;;;;;;19.70;11.10;;;7.90;1.00;;;;;;6408062;22;20443;-91
2021/03/02 20:17:31;;;;;;;15.73;11.00;;;7.90;1.00;;;;;;6407987;22;20421;-91
2021/03/02 20:19:58;;;;;;;14.80;10.87;;;7.90;99.90;;;;;;6407880;22;20704;-91
2021/03/02 20:22:29;;;;;;;15.23;11.40;;;7.90;1.00;;;;;;6407518;22;20446;-91
2021/03/02 20:24:56;;;;;;;16.70;11.50;;;7.90;99.90;;;;;;6407547;22;20421;-91
2021/03/02 20:27:23;;;;;;;17.47;10.87;;;7.90;99.90;;;;;;6407523;22;20561;-91
2021/03/02 20:29:52;;;;;;;19.30;12.47;;;7.90;99.90;;;;;;6406480;22;20501;-91
2021/03/02 20:32:48;;;;;;;16.50;11.60;;;7.90;99.90;;;;;;6404502;22;20417;-91
2021/03/02 20:38:34;;;;;;;13.70;10.57;;;7.80;99.90;;;;;;6405931;22;20423;-91
2021/03/02 20:41:06;;;;;;;23.00;10.80;;;7.80;1.00;;;;;;6408363;22;20730;-91
2021/03/02 20:43:53;;;;;;;16.50;10.43;;;7.70;1.00;;;;;;6405249;22;20476;-92
2021/03/02 20:53:30;;;;;;;15.90;11.50;;;7.80;1.00;;;;;;6403487;22;20413;-91
2021/03/02 20:56:22;;;;;;;20.50;11.33;;;7.80;1.00;;;;;;6407508;22;20519;-91
